createdAt,value
2022-07-31T00:02:12.110Z,46.30
2022-07-31T00:04:42.533Z,46.40
2022-07-31T00:07:13.612Z,46.10
2022-07-31T00:09:53.121Z,47.00
2022-07-31T00:12:25.319Z,46.40
2022-07-31T00:14:55.701Z,46.40
2022-07-31T00:17:25.916Z,46.60
2022-07-31T00:19:57.323Z,46.50
2022-07-31T00:22:27.829Z,46.50
2022-07-31T00:24:58.192Z,46.60
2022-07-31T00:27:28.529Z,46.40
2022-07-31T00:29:58.782Z,46.70
2022-07-31T00:32:29.569Z,47.00
2022-07-31T00:34:59.780Z,47.50
2022-07-31T00:37:30.288Z,47.70
2022-07-31T00:40:00.774Z,48.00
2022-07-31T00:42:31.224Z,48.20
2022-07-31T00:45:02.137Z,48.40
2022-07-31T00:47:33.166Z,48.50
2022-07-31T00:50:04.117Z,48.70
2022-07-31T00:52:34.331Z,48.70
2022-07-31T00:55:04.669Z,48.90
2022-07-31T00:57:34.858Z,49.00
2022-07-31T01:00:05.884Z,49.20
2022-07-31T01:02:36.073Z,49.40
2022-07-31T01:05:06.509Z,49.50
2022-07-31T01:07:36.907Z,49.70
2022-07-31T01:10:11.657Z,49.90
2022-07-31T01:13:07.052Z,50.10
2022-07-31T01:15:39.991Z,50.30
2022-07-31T01:18:12.252Z,50.50
2022-07-31T01:20:47.352Z,50.60
2022-07-31T01:23:25.112Z,50.70
2022-07-31T01:26:03.863Z,50.90
2022-07-31T01:29:11.706Z,50.90
2022-07-31T01:31:44.729Z,51.10
2022-07-31T01:34:28.489Z,51.20
2022-07-31T01:37:17.604Z,51.40
2022-07-31T01:39:53.940Z,51.50
2022-07-31T01:42:28.696Z,51.50
2022-07-31T01:45:03.185Z,51.60
2022-07-31T01:47:35.597Z,51.80
2022-07-31T01:50:07.716Z,51.80
2022-07-31T01:52:38.817Z,51.90
2022-07-31T01:55:12.275Z,52.00
2022-07-31T01:57:43.802Z,52.00
2022-07-31T02:00:33.307Z,52.10
2022-07-31T02:03:09.643Z,52.10
2022-07-31T02:05:42.829Z,52.20
2022-07-31T02:08:16.532Z,52.30
2022-07-31T02:10:48.716Z,52.30
2022-07-31T02:13:19.531Z,52.40
2022-07-31T02:15:50.730Z,52.50
2022-07-31T02:18:22.899Z,52.60
2022-07-31T02:20:54.353Z,52.70
2022-07-31T02:23:24.502Z,52.80
2022-07-31T02:25:55.281Z,52.90
2022-07-31T02:28:28.279Z,52.90
2022-07-31T02:30:59.758Z,53.00
2022-07-31T02:33:31.220Z,53.00
2022-07-31T02:36:02.822Z,53.00
2022-07-31T02:38:35.269Z,53.20
2022-07-31T02:41:08.058Z,53.20
2022-07-31T02:43:39.315Z,53.30
2022-07-31T02:46:11.052Z,53.40
2022-07-31T02:48:42.338Z,53.40
2022-07-31T02:51:12.797Z,53.50
2022-07-31T02:53:43.586Z,53.50
2022-07-31T02:56:14.294Z,53.60
2022-07-31T02:58:44.771Z,53.70
2022-07-31T03:01:15.990Z,53.80
2022-07-31T03:03:46.379Z,53.90
2022-07-31T03:06:16.628Z,53.90
2022-07-31T03:08:47.122Z,54.00
2022-07-31T03:11:18.747Z,54.00
2022-07-31T03:13:50.242Z,54.10
2022-07-31T03:16:20.588Z,54.20
2022-07-31T03:18:51.170Z,54.20
2022-07-31T03:21:22.585Z,54.20
2022-07-31T03:23:53.020Z,54.30
2022-07-31T03:26:23.345Z,54.40
2022-07-31T03:28:53.650Z,54.30
2022-07-31T03:31:24.360Z,54.30
2022-07-31T03:33:54.656Z,54.20
2022-07-31T03:36:25.514Z,54.20
2022-07-31T03:38:56.892Z,54.20
2022-07-31T03:41:27.258Z,54.20
2022-07-31T03:43:57.533Z,54.20
2022-07-31T03:46:28.531Z,54.30
2022-07-31T03:48:59.171Z,54.30
2022-07-31T03:51:29.759Z,54.30
2022-07-31T03:53:59.967Z,54.40
2022-07-31T03:56:31.938Z,54.30
2022-07-31T03:59:02.259Z,54.30
2022-07-31T04:01:57.331Z,54.40
2022-07-31T04:04:24.266Z,54.40
2022-07-31T04:06:54.947Z,54.70
2022-07-31T04:09:25.163Z,55.10
2022-07-31T04:11:55.407Z,55.30
2022-07-31T04:14:25.774Z,55.60
2022-07-31T04:16:56.116Z,55.70
2022-07-31T04:19:26.364Z,55.60
2022-07-31T04:21:56.687Z,55.80
2022-07-31T04:24:27.612Z,55.70
2022-07-31T04:26:58.965Z,55.70
2022-07-31T04:29:32.135Z,55.50
2022-07-31T04:32:02.678Z,55.40
2022-07-31T04:34:33.117Z,55.40
2022-07-31T04:37:03.555Z,55.30
2022-07-31T04:39:33.810Z,55.40
2022-07-31T04:42:04.365Z,55.40
2022-07-31T04:44:34.732Z,55.40
2022-07-31T04:47:07.483Z,55.50
2022-07-31T04:49:38.011Z,55.70
2022-07-31T04:52:08.846Z,55.70
2022-07-31T04:54:40.702Z,55.80
2022-07-31T04:57:11.090Z,55.90
2022-07-31T05:00:00.303Z,55.90
2022-07-31T05:02:31.870Z,55.90
2022-07-31T05:05:02.098Z,56.00
2022-07-31T05:07:32.400Z,56.00
2022-07-31T05:10:02.513Z,56.00
2022-07-31T05:12:32.867Z,56.00
2022-07-31T05:15:03.097Z,56.00
2022-07-31T05:17:33.548Z,56.10
2022-07-31T05:20:03.759Z,56.00
2022-07-31T05:22:33.992Z,56.00
2022-07-31T05:25:04.126Z,56.00
2022-07-31T05:27:39.049Z,56.00
2022-07-31T05:30:12.567Z,56.00
2022-07-31T05:32:43.181Z,56.10
2022-07-31T05:35:14.080Z,56.10
2022-07-31T05:37:44.452Z,56.10
2022-07-31T05:40:15.441Z,56.00
2022-07-31T05:42:46.628Z,56.00
2022-07-31T05:45:16.903Z,56.00
2022-07-31T05:47:47.137Z,56.00
2022-07-31T05:50:18.195Z,55.90
2022-07-31T05:52:48.781Z,55.90
2022-07-31T05:55:19.635Z,55.90
2022-07-31T05:57:50.784Z,55.90
2022-07-31T06:00:22.713Z,55.90
2022-07-31T06:02:53.195Z,55.90
2022-07-31T06:05:23.382Z,55.90
2022-07-31T06:07:54.448Z,55.90
2022-07-31T06:10:25.159Z,55.90
2022-07-31T06:12:56.312Z,55.90
2022-07-31T06:15:26.927Z,55.90
2022-07-31T06:17:57.252Z,56.00
2022-07-31T06:20:27.563Z,55.90
2022-07-31T06:22:58.152Z,55.90
2022-07-31T06:25:31.918Z,55.80
2022-07-31T06:28:10.341Z,55.70
2022-07-31T06:30:41.396Z,55.80
2022-07-31T06:33:16.484Z,55.80
2022-07-31T06:35:50.551Z,55.80
2022-07-31T06:38:32.444Z,55.80
2022-07-31T06:41:02.680Z,55.80
2022-07-31T06:43:32.989Z,55.80
2022-07-31T06:46:03.221Z,55.80
2022-07-31T06:48:33.438Z,55.70
2022-07-31T06:51:29.187Z,55.80
2022-07-31T06:53:53.948Z,55.80
2022-07-31T06:56:24.555Z,55.90
2022-07-31T06:58:55.173Z,55.90
2022-07-31T07:01:25.603Z,55.70
2022-07-31T07:03:56.050Z,55.80
2022-07-31T07:06:26.775Z,55.80
2022-07-31T07:08:57.565Z,55.80
2022-07-31T07:11:27.812Z,55.80
2022-07-31T07:13:57.936Z,55.70
2022-07-31T07:16:28.208Z,55.80
2022-07-31T07:18:58.463Z,55.70
2022-07-31T07:21:28.670Z,55.80
2022-07-31T07:23:58.974Z,55.80
2022-07-31T07:26:29.255Z,55.70
2022-07-31T07:28:59.577Z,55.70
2022-07-31T07:31:30.263Z,55.70
2022-07-31T07:34:00.544Z,55.70
2022-07-31T07:36:30.682Z,55.70
2022-07-31T07:39:00.925Z,55.70
2022-07-31T07:41:31.087Z,55.70
2022-07-31T07:44:01.394Z,55.70
2022-07-31T07:46:32.143Z,55.70
2022-07-31T07:49:02.693Z,55.70
2022-07-31T07:51:33.658Z,55.70
2022-07-31T07:54:04.240Z,55.60
2022-07-31T07:56:34.610Z,55.60
2022-07-31T07:59:04.867Z,55.70
2022-07-31T08:01:35.087Z,55.60
2022-07-31T08:04:06.029Z,55.70
2022-07-31T08:06:36.356Z,55.60
2022-07-31T08:09:06.679Z,55.60
2022-07-31T08:11:37.037Z,55.60
2022-07-31T08:14:07.246Z,55.60
2022-07-31T08:16:37.460Z,55.60
2022-07-31T08:19:07.779Z,55.60
2022-07-31T08:21:39.124Z,55.60
2022-07-31T08:24:09.718Z,55.60
2022-07-31T08:26:59.058Z,55.60
2022-07-31T08:29:30.387Z,55.60
2022-07-31T08:32:00.780Z,55.70
2022-07-31T08:34:32.108Z,55.80
2022-07-31T08:37:52.074Z,55.80
2022-07-31T08:39:53.928Z,55.90
2022-07-31T08:42:24.561Z,56.00
2022-07-31T08:44:55.091Z,56.10
2022-07-31T08:47:29.068Z,56.10
2022-07-31T08:50:00.835Z,56.20
2022-07-31T08:52:34.139Z,56.30
2022-07-31T08:55:09.181Z,56.30
2022-07-31T08:57:39.885Z,56.40
2022-07-31T09:00:21.320Z,56.50
2022-07-31T09:02:52.303Z,56.50
2022-07-31T09:05:23.397Z,56.40
2022-07-31T09:07:53.952Z,56.40
2022-07-31T09:10:31.831Z,56.50
2022-07-31T09:13:02.242Z,56.60
2022-07-31T09:15:33.642Z,56.50
2022-07-31T09:18:03.974Z,56.60
2022-07-31T09:20:34.528Z,56.50
2022-07-31T09:23:13.336Z,56.50
2022-07-31T09:25:57.941Z,56.60
2022-07-31T09:28:43.351Z,56.60
2022-07-31T09:31:15.563Z,56.60
2022-07-31T09:33:49.350Z,56.60
2022-07-31T09:36:26.622Z,56.60
2022-07-31T09:39:04.242Z,56.60
2022-07-31T09:41:59.913Z,56.60
2022-07-31T09:44:26.406Z,56.60
2022-07-31T09:46:56.712Z,56.60
2022-07-31T09:49:37.153Z,56.50
2022-07-31T09:52:07.639Z,56.60
2022-07-31T09:54:37.801Z,56.60
2022-07-31T09:57:17.779Z,56.50
2022-07-31T09:59:48.078Z,56.50
2022-07-31T10:02:20.710Z,56.50
2022-07-31T10:04:52.824Z,56.50
2022-07-31T10:07:31.862Z,56.50
2022-07-31T10:10:05.108Z,56.50
2022-07-31T10:12:37.311Z,56.50
2022-07-31T10:15:12.149Z,56.50
2022-07-31T10:17:47.320Z,56.60
2022-07-31T10:20:23.425Z,56.60
2022-07-31T10:23:17.984Z,56.60
2022-07-31T10:25:54.569Z,56.60
2022-07-31T10:28:25.924Z,56.60
2022-07-31T10:30:56.627Z,56.70
2022-07-31T10:33:43.497Z,56.70
2022-07-31T10:36:31.550Z,56.70
2022-07-31T10:39:26.489Z,56.80
2022-07-31T10:42:14.588Z,56.80
2022-07-31T10:44:51.572Z,56.90
2022-07-31T10:47:22.428Z,56.90
2022-07-31T10:49:52.878Z,56.80
2022-07-31T10:52:33.916Z,56.80
2022-07-31T10:55:04.355Z,56.90
2022-07-31T10:57:55.927Z,56.80
2022-07-31T11:00:30.390Z,56.80
2022-07-31T11:03:00.876Z,56.90
2022-07-31T11:05:31.160Z,56.90
2022-07-31T11:08:29.662Z,56.90
2022-07-31T11:11:03.731Z,56.90
2022-07-31T11:13:36.969Z,57.50
2022-07-31T11:16:08.537Z,56.90
2022-07-31T11:18:39.620Z,57.60
2022-07-31T11:21:37.525Z,56.90
2022-07-31T11:24:05.839Z,56.90
2022-07-31T11:26:42.044Z,56.90
2022-07-31T11:30:00.508Z,57.00
2022-07-31T11:32:09.501Z,56.90
2022-07-31T11:34:59.808Z,56.90
2022-07-31T11:37:46.199Z,56.90
2022-07-31T11:40:27.868Z,56.80
2022-07-31T11:45:55.350Z,56.80
2022-07-31T11:48:28.470Z,56.80
2022-07-31T11:50:58.665Z,56.80
2022-07-31T11:53:29.242Z,56.80
2022-07-31T11:56:04.329Z,56.80
2022-07-31T11:58:35.597Z,56.80
2022-07-31T12:01:07.637Z,56.80
2022-07-31T12:03:40.277Z,56.80
2022-07-31T12:06:12.614Z,56.80
2022-07-31T12:08:43.513Z,56.80
2022-07-31T12:11:14.546Z,56.80
2022-07-31T12:13:49.642Z,56.80
2022-07-31T12:16:23.091Z,56.70
2022-07-31T12:19:00.964Z,56.80
2022-07-31T12:21:36.349Z,56.80
2022-07-31T12:24:14.530Z,56.80
2022-07-31T12:26:54.306Z,57.00
2022-07-31T12:29:44.633Z,57.10
2022-07-31T12:32:14.899Z,57.50
2022-07-31T12:34:45.859Z,57.70
2022-07-31T12:37:23.742Z,57.50
2022-07-31T12:40:00.768Z,57.70
2022-07-31T12:42:34.215Z,57.70
2022-07-31T12:45:18.513Z,57.80
2022-07-31T12:47:55.821Z,57.80
2022-07-31T12:50:27.370Z,57.90
2022-07-31T12:53:00.105Z,57.90
2022-07-31T12:55:31.856Z,58.00
2022-07-31T12:58:02.275Z,58.10
2022-07-31T13:00:35.791Z,58.10
2022-07-31T13:03:08.704Z,58.00
2022-07-31T13:05:38.914Z,58.00
2022-07-31T13:08:10.567Z,57.90
2022-07-31T13:10:40.906Z,57.90
2022-07-31T13:13:11.529Z,58.00
2022-07-31T13:15:42.304Z,58.00
2022-07-31T13:18:12.834Z,58.00
2022-07-31T13:20:43.119Z,58.00
2022-07-31T13:23:13.637Z,58.00
2022-07-31T13:25:43.845Z,58.10
2022-07-31T13:28:14.318Z,58.10
2022-07-31T13:30:44.524Z,58.10
2022-07-31T13:33:15.320Z,58.10
2022-07-31T13:35:45.764Z,58.10
2022-07-31T13:38:25.243Z,58.20
2022-07-31T13:41:13.694Z,58.20
2022-07-31T13:43:59.699Z,58.20
2022-07-31T13:46:31.435Z,58.30
2022-07-31T13:49:02.824Z,58.40
2022-07-31T13:51:33.115Z,58.40
2022-07-31T13:54:03.438Z,58.30
2022-07-31T13:56:39.423Z,58.30
2022-07-31T13:59:15.379Z,58.40
2022-07-31T14:02:04.100Z,58.50
2022-07-31T14:04:38.441Z,58.40
2022-07-31T14:07:09.626Z,58.40
2022-07-31T14:09:51.430Z,58.50
2022-07-31T14:12:26.559Z,58.50
2022-07-31T14:14:56.884Z,58.50
2022-07-31T14:17:27.192Z,58.50
2022-07-31T14:19:57.378Z,58.50
2022-07-31T14:22:27.498Z,58.50
2022-07-31T14:24:57.739Z,58.50
2022-07-31T14:27:27.893Z,58.60
2022-07-31T14:29:58.187Z,58.60
2022-07-31T14:32:28.371Z,58.60
2022-07-31T14:34:58.591Z,58.50
2022-07-31T14:37:28.852Z,58.50
2022-07-31T14:39:59.146Z,58.50
2022-07-31T14:42:29.518Z,58.50
2022-07-31T14:45:00.594Z,58.40
2022-07-31T14:47:31.326Z,58.40
2022-07-31T14:50:09.895Z,58.40
2022-07-31T14:52:41.781Z,58.40
2022-07-31T14:55:12.712Z,58.40
2022-07-31T14:57:42.958Z,58.50
2022-07-31T15:00:14.697Z,58.40
2022-07-31T15:02:46.049Z,58.40
2022-07-31T15:06:41.961Z,58.40
2022-07-31T15:08:06.898Z,58.50
2022-07-31T15:10:37.116Z,58.40
2022-07-31T15:13:07.355Z,58.50
2022-07-31T15:15:37.620Z,58.40
2022-07-31T15:18:07.983Z,58.40
2022-07-31T15:20:38.606Z,58.40
2022-07-31T15:23:08.795Z,58.40
2022-07-31T15:25:39.070Z,58.40
2022-07-31T15:28:09.331Z,58.30
2022-07-31T15:30:39.574Z,58.40
2022-07-31T15:33:09.807Z,58.40
2022-07-31T15:35:40.072Z,58.40
2022-07-31T15:38:10.806Z,58.40
2022-07-31T15:40:41.063Z,58.50
2022-07-31T15:43:11.343Z,58.40
2022-07-31T15:45:41.542Z,58.40
2022-07-31T15:48:12.029Z,58.40
2022-07-31T15:50:42.291Z,58.40
2022-07-31T15:53:12.417Z,58.50
2022-07-31T15:55:42.606Z,58.50
2022-07-31T15:58:12.802Z,58.50
2022-07-31T16:00:43.115Z,58.40
2022-07-31T16:03:15.404Z,58.50
2022-07-31T16:05:55.796Z,58.50
2022-07-31T16:08:35.392Z,58.50
2022-07-31T16:11:06.244Z,58.50
2022-07-31T16:13:38.221Z,58.50
2022-07-31T16:16:08.965Z,58.50
2022-07-31T16:18:39.790Z,58.60
2022-07-31T16:21:10.098Z,58.60
2022-07-31T16:23:40.377Z,58.50
2022-07-31T16:26:11.382Z,58.60
2022-07-31T16:28:41.654Z,58.50
2022-07-31T16:31:11.779Z,58.60
2022-07-31T16:34:01.539Z,58.60
2022-07-31T16:36:32.015Z,58.60
2022-07-31T16:39:19.528Z,58.60
2022-07-31T16:41:54.864Z,59.30
2022-07-31T16:44:25.682Z,58.70
2022-07-31T16:46:56.011Z,58.70
2022-07-31T16:49:28.402Z,58.70
2022-07-31T16:52:08.019Z,58.70
2022-07-31T16:54:38.364Z,58.70
2022-07-31T16:57:08.701Z,58.70
2022-07-31T16:59:56.695Z,58.70
2022-07-31T17:02:28.779Z,58.70
2022-07-31T17:04:59.359Z,58.70
2022-07-31T17:07:30.162Z,58.70
2022-07-31T17:10:00.763Z,58.80
2022-07-31T17:12:30.966Z,58.70
2022-07-31T17:15:01.421Z,58.80
2022-07-31T17:17:31.674Z,58.70
2022-07-31T17:20:02.393Z,58.70
2022-07-31T17:22:32.941Z,58.80
2022-07-31T17:25:03.803Z,58.80
2022-07-31T17:27:34.372Z,58.80
2022-07-31T17:30:05.341Z,58.80
2022-07-31T17:32:36.223Z,58.80
2022-07-31T17:35:07.097Z,58.90
2022-07-31T17:37:38.581Z,58.80
2022-07-31T17:40:27.223Z,58.80
2022-07-31T17:42:59.717Z,58.80
2022-07-31T17:45:37.164Z,58.90
2022-07-31T17:48:21.506Z,58.90
2022-07-31T17:50:54.214Z,58.90
2022-07-31T17:53:31.216Z,58.90
2022-07-31T17:56:15.042Z,58.90
2022-07-31T17:58:48.793Z,58.90
2022-07-31T18:01:19.080Z,58.90
2022-07-31T18:03:49.527Z,58.90
2022-07-31T18:06:19.796Z,58.90
2022-07-31T18:08:50.054Z,59.00
2022-07-31T18:11:20.782Z,59.00
2022-07-31T18:13:55.313Z,59.00
2022-07-31T18:16:26.453Z,59.00
2022-07-31T18:18:56.754Z,59.00
2022-07-31T18:21:27.422Z,59.00
2022-07-31T18:24:00.873Z,59.10
2022-07-31T18:26:33.738Z,59.10
2022-07-31T18:29:04.390Z,59.10
2022-07-31T18:31:35.967Z,59.10
2022-07-31T18:34:07.243Z,59.10
2022-07-31T18:36:38.009Z,59.10
2022-07-31T18:39:08.948Z,59.20
2022-07-31T18:41:44.425Z,59.10
2022-07-31T18:44:17.167Z,59.10
2022-07-31T18:46:47.487Z,59.70
2022-07-31T18:51:01.284Z,59.10
2022-07-31T18:52:08.744Z,59.10
2022-07-31T18:54:39.383Z,59.20
2022-07-31T18:57:10.280Z,59.20
2022-07-31T18:59:40.831Z,59.20
2022-07-31T19:02:12.339Z,59.20
2022-07-31T19:04:42.768Z,59.20
2022-07-31T19:07:13.612Z,59.20
2022-07-31T19:09:43.754Z,59.20
2022-07-31T19:12:15.620Z,59.20
2022-07-31T19:14:46.074Z,59.20
2022-07-31T19:17:21.271Z,59.30
2022-07-31T19:19:54.836Z,59.30
2022-07-31T19:22:31.634Z,59.30
2022-07-31T19:25:01.866Z,59.30
2022-07-31T19:27:46.891Z,59.30
2022-07-31T19:30:18.817Z,59.30
2022-07-31T19:32:49.071Z,59.30
2022-07-31T19:35:19.275Z,59.30
2022-07-31T19:37:57.945Z,59.30
2022-07-31T19:40:28.583Z,59.30
2022-07-31T19:43:01.527Z,59.30
2022-07-31T19:45:33.915Z,59.40
2022-07-31T19:48:04.397Z,59.30
2022-07-31T19:50:34.681Z,59.40
2022-07-31T19:53:05.759Z,59.30
2022-07-31T19:55:36.284Z,59.40
2022-07-31T19:58:08.495Z,59.40
2022-07-31T20:00:38.719Z,59.40
2022-07-31T20:03:09.791Z,59.40
2022-07-31T20:05:40.319Z,59.40
2022-07-31T20:08:12.119Z,59.40
2022-07-31T20:10:42.391Z,59.40
2022-07-31T20:13:12.662Z,59.50
2022-07-31T20:15:52.345Z,59.50
2022-07-31T20:18:29.081Z,59.50
2022-07-31T20:21:05.426Z,59.50
2022-07-31T20:23:39.041Z,59.50
2022-07-31T20:26:12.009Z,59.50
2022-07-31T20:28:42.599Z,59.50
2022-07-31T20:31:19.526Z,59.50
2022-07-31T20:33:56.782Z,59.50
2022-07-31T20:36:29.913Z,59.50
2022-07-31T20:39:00.369Z,59.50
2022-07-31T20:41:30.639Z,59.50
2022-07-31T20:44:01.818Z,59.50
2022-07-31T20:46:32.392Z,59.60
2022-07-31T20:49:02.787Z,59.60
2022-07-31T20:51:33.135Z,59.50
2022-07-31T20:54:03.814Z,59.50
2022-07-31T20:56:34.056Z,59.50
2022-07-31T20:59:04.259Z,59.50
2022-07-31T21:01:34.620Z,59.60
2022-07-31T21:04:04.946Z,59.60
2022-07-31T21:06:35.135Z,59.60
2022-07-31T21:09:09.530Z,59.60
2022-07-31T21:11:40.094Z,59.60
2022-07-31T21:14:12.160Z,59.60
2022-07-31T21:16:43.262Z,59.60
2022-07-31T21:19:13.734Z,59.60
2022-07-31T21:21:43.980Z,59.60
2022-07-31T21:24:14.540Z,59.70
2022-07-31T21:26:46.025Z,59.70
2022-07-31T21:29:21.433Z,59.70
2022-07-31T21:34:32.273Z,59.80
2022-07-31T21:37:03.674Z,59.60
2022-07-31T21:39:37.539Z,59.60
2022-07-31T21:42:08.444Z,59.70
2022-07-31T21:44:39.023Z,59.70
2022-07-31T21:47:15.169Z,59.80
2022-07-31T21:49:53.058Z,59.80
2022-07-31T21:52:25.671Z,59.90
2022-07-31T21:54:56.249Z,60.00
2022-07-31T21:57:26.665Z,60.00
2022-07-31T21:59:56.876Z,60.00
2022-07-31T22:02:27.015Z,60.00
2022-07-31T22:05:15.278Z,60.00
2022-07-31T22:07:47.592Z,60.00
2022-07-31T22:10:24.676Z,59.90
2022-07-31T22:12:55.229Z,59.90
2022-07-31T22:15:25.958Z,59.90
2022-07-31T22:18:16.514Z,59.80
2022-07-31T22:20:47.379Z,59.80
2022-07-31T22:23:18.070Z,59.80
2022-07-31T22:25:50.613Z,59.80
2022-07-31T22:28:23.586Z,59.80
2022-07-31T22:30:54.679Z,59.80
2022-07-31T22:33:25.685Z,59.80
2022-07-31T22:35:58.973Z,59.80
2022-07-31T22:38:33.713Z,59.80
2022-07-31T22:41:05.001Z,60.50
2022-07-31T22:44:12.299Z,58.80
2022-07-31T22:46:25.935Z,57.30
2022-07-31T22:48:57.462Z,56.20
2022-07-31T22:51:27.871Z,55.60
2022-07-31T22:53:58.033Z,55.00
2022-07-31T22:56:28.555Z,54.50
2022-07-31T22:58:58.781Z,54.00
2022-07-31T23:01:29.223Z,53.70
2022-07-31T23:04:00.589Z,53.60
2022-07-31T23:06:32.708Z,53.30
2022-07-31T23:09:03.793Z,52.70
2022-07-31T23:11:34.506Z,52.80
2022-07-31T23:14:05.952Z,53.30
2022-07-31T23:16:36.613Z,52.70
2022-07-31T23:19:06.965Z,52.50
2022-07-31T23:21:37.162Z,52.70
2022-07-31T23:24:07.581Z,52.20
2022-07-31T23:26:38.047Z,52.30
2022-07-31T23:29:08.699Z,52.20
2022-07-31T23:31:39.924Z,51.60
2022-07-31T23:34:11.830Z,52.00
2022-07-31T23:36:42.040Z,51.90
2022-07-31T23:39:14.783Z,51.60
2022-07-31T23:42:03.158Z,52.00
2022-07-31T23:44:34.017Z,51.20
2022-07-31T23:47:10.473Z,51.60
2022-07-31T23:49:46.550Z,51.50
2022-07-31T23:52:16.722Z,51.20
2022-07-31T23:54:47.138Z,51.40
2022-07-31T23:57:17.807Z,51.00
2022-07-31T23:59:48.464Z,51.20
